sensor_id;sensor_type;location;lat;lon;timestamp;P1;durP1;ratioP1;P2;durP2;ratioP2
64029;SDS011;50277;52.064;4.492;2022-07-12T00:01:15;5.55;;;3.63;;
64029;SDS011;50277;52.064;4.492;2022-07-12T00:03:40;4.70;;;3.70;;
64029;SDS011;50277;52.064;4.492;2022-07-12T00:06:05;4.20;;;3.80;;
64029;SDS011;50277;52.064;4.492;2022-07-12T00:08:31;3.67;;;3.30;;
64029;SDS011;50277;52.064;4.492;2022-07-12T00:10:56;5.30;;;3.83;;
64029;SDS011;50277;52.064;4.492;2022-07-12T00:13:23;3.85;;;3.55;;
64029;SDS011;50277;52.064;4.492;2022-07-12T00:15:48;5.28;;;3.70;;
64029;SDS011;50277;52.064;4.492;2022-07-12T00:18:14;7.57;;;4.32;;
64029;SDS011;50277;52.064;4.492;2022-07-12T00:20:39;5.18;;;3.88;;
64029;SDS011;50277;52.064;4.492;2022-07-12T00:23:04;4.07;;;3.63;;
64029;SDS011;50277;52.064;4.492;2022-07-12T00:25:30;3.90;;;3.50;;
64029;SDS011;50277;52.064;4.492;2022-07-12T00:27:55;6.80;;;3.97;;
64029;SDS011;50277;52.064;4.492;2022-07-12T00:30:21;3.85;;;3.40;;
64029;SDS011;50277;52.064;4.492;2022-07-12T00:32:47;3.70;;;3.40;;
64029;SDS011;50277;52.064;4.492;2022-07-12T00:35:12;3.97;;;3.58;;
64029;SDS011;50277;52.064;4.492;2022-07-12T00:37:38;4.20;;;3.80;;
64029;SDS011;50277;52.064;4.492;2022-07-12T00:40:04;4.35;;;3.70;;
64029;SDS011;50277;52.064;4.492;2022-07-12T00:42:31;4.15;;;3.83;;
64029;SDS011;50277;52.064;4.492;2022-07-12T00:44:57;4.05;;;3.67;;
64029;SDS011;50277;52.064;4.492;2022-07-12T00:47:33;6.63;;;3.40;;
64029;SDS011;50277;52.064;4.492;2022-07-12T00:50:08;5.78;;;3.50;;
64029;SDS011;50277;52.064;4.492;2022-07-12T00:52:44;3.83;;;3.53;;
64029;SDS011;50277;52.064;4.492;2022-07-12T00:55:10;3.78;;;3.47;;
64029;SDS011;50277;52.064;4.492;2022-07-12T00:57:36;8.02;;;3.92;;
64029;SDS011;50277;52.064;4.492;2022-07-12T01:00:03;4.43;;;4.03;;
64029;SDS011;50277;52.064;4.492;2022-07-12T01:02:31;4.25;;;3.45;;
64029;SDS011;50277;52.064;4.492;2022-07-12T01:04:56;4.10;;;3.60;;
64029;SDS011;50277;52.064;4.492;2022-07-12T01:07:23;3.97;;;3.67;;
64029;SDS011;50277;52.064;4.492;2022-07-12T01:09:49;5.85;;;3.45;;
64029;SDS011;50277;52.064;4.492;2022-07-12T01:12:16;7.55;;;4.18;;
64029;SDS011;50277;52.064;4.492;2022-07-12T01:14:41;4.28;;;3.60;;
64029;SDS011;50277;52.064;4.492;2022-07-12T01:17:07;4.55;;;3.70;;
64029;SDS011;50277;52.064;4.492;2022-07-12T01:19:33;4.75;;;3.63;;
64029;SDS011;50277;52.064;4.492;2022-07-12T01:21:59;3.78;;;3.47;;
64029;SDS011;50277;52.064;4.492;2022-07-12T01:24:26;9.50;;;3.97;;
64029;SDS011;50277;52.064;4.492;2022-07-12T01:26:52;4.28;;;3.88;;
64029;SDS011;50277;52.064;4.492;2022-07-12T01:29:17;6.05;;;4.10;;
64029;SDS011;50277;52.064;4.492;2022-07-12T01:31:43;4.57;;;4.15;;
64029;SDS011;50277;52.064;4.492;2022-07-12T01:34:08;4.78;;;4.28;;
64029;SDS011;50277;52.064;4.492;2022-07-12T01:36:34;7.40;;;4.28;;
64029;SDS011;50277;52.064;4.492;2022-07-12T01:38:59;6.30;;;4.18;;
64029;SDS011;50277;52.064;4.492;2022-07-12T01:41:25;4.28;;;3.80;;
64029;SDS011;50277;52.064;4.492;2022-07-12T01:43:51;4.50;;;4.10;;
64029;SDS011;50277;52.064;4.492;2022-07-12T01:46:16;6.60;;;4.10;;
64029;SDS011;50277;52.064;4.492;2022-07-12T01:48:42;5.57;;;4.20;;
64029;SDS011;50277;52.064;4.492;2022-07-12T01:51:07;4.47;;;4.07;;
64029;SDS011;50277;52.064;4.492;2022-07-12T01:53:33;5.35;;;4.18;;
64029;SDS011;50277;52.064;4.492;2022-07-12T01:56:02;7.13;;;4.55;;
64029;SDS011;50277;52.064;4.492;2022-07-12T01:58:28;7.20;;;4.90;;
64029;SDS011;50277;52.064;4.492;2022-07-12T02:00:53;6.13;;;5.38;;
64029;SDS011;50277;52.064;4.492;2022-07-12T02:03:19;7.47;;;5.57;;
64029;SDS011;50277;52.064;4.492;2022-07-12T02:05:44;9.70;;;5.78;;
64029;SDS011;50277;52.064;4.492;2022-07-12T02:08:11;12.18;;;6.80;;
64029;SDS011;50277;52.064;4.492;2022-07-12T02:10:37;9.30;;;5.70;;
64029;SDS011;50277;52.064;4.492;2022-07-12T02:13:03;7.85;;;5.60;;
64029;SDS011;50277;52.064;4.492;2022-07-12T02:15:29;5.38;;;4.88;;
64029;SDS011;50277;52.064;4.492;2022-07-12T02:17:54;9.60;;;5.45;;
64029;SDS011;50277;52.064;4.492;2022-07-12T02:20:19;7.07;;;4.93;;
64029;SDS011;50277;52.064;4.492;2022-07-12T02:22:45;5.25;;;4.75;;
64029;SDS011;50277;52.064;4.492;2022-07-12T02:25:10;4.97;;;4.20;;
64029;SDS011;50277;52.064;4.492;2022-07-12T02:27:35;7.75;;;5.22;;
64029;SDS011;50277;52.064;4.492;2022-07-12T02:30:03;6.32;;;4.88;;
64029;SDS011;50277;52.064;4.492;2022-07-12T02:32:29;5.65;;;4.78;;
64029;SDS011;50277;52.064;4.492;2022-07-12T02:34:54;8.52;;;4.70;;
64029;SDS011;50277;52.064;4.492;2022-07-12T02:37:19;8.20;;;4.82;;
64029;SDS011;50277;52.064;4.492;2022-07-12T02:39:45;7.95;;;4.57;;
64029;SDS011;50277;52.064;4.492;2022-07-12T02:42:10;6.00;;;5.03;;
64029;SDS011;50277;52.064;4.492;2022-07-12T02:44:36;5.95;;;5.15;;
64029;SDS011;50277;52.064;4.492;2022-07-12T02:47:01;8.05;;;5.03;;
64029;SDS011;50277;52.064;4.492;2022-07-12T02:49:26;5.10;;;4.60;;
64029;SDS011;50277;52.064;4.492;2022-07-12T02:51:52;7.57;;;4.70;;
64029;SDS011;50277;52.064;4.492;2022-07-12T02:54:17;10.98;;;4.90;;
64029;SDS011;50277;52.064;4.492;2022-07-12T02:56:42;7.32;;;4.65;;
64029;SDS011;50277;52.064;4.492;2022-07-12T02:59:08;6.85;;;4.00;;
64029;SDS011;50277;52.064;4.492;2022-07-12T03:01:33;7.15;;;5.13;;
64029;SDS011;50277;52.064;4.492;2022-07-12T03:03:58;14.70;;;5.28;;
64029;SDS011;50277;52.064;4.492;2022-07-12T03:06:24;7.70;;;4.30;;
64029;SDS011;50277;52.064;4.492;2022-07-12T03:08:49;9.07;;;5.20;;
64029;SDS011;50277;52.064;4.492;2022-07-12T03:11:15;9.10;;;6.03;;
64029;SDS011;50277;52.064;4.492;2022-07-12T03:13:40;9.70;;;5.05;;
64029;SDS011;50277;52.064;4.492;2022-07-12T03:16:06;10.38;;;5.43;;
64029;SDS011;50277;52.064;4.492;2022-07-12T03:18:32;11.93;;;5.40;;
64029;SDS011;50277;52.064;4.492;2022-07-12T03:20:58;7.93;;;5.30;;
64029;SDS011;50277;52.064;4.492;2022-07-12T03:23:23;10.88;;;5.20;;
64029;SDS011;50277;52.064;4.492;2022-07-12T03:25:48;12.07;;;5.50;;
64029;SDS011;50277;52.064;4.492;2022-07-12T03:28:14;6.05;;;5.30;;
64029;SDS011;50277;52.064;4.492;2022-07-12T03:30:39;6.18;;;5.57;;
64029;SDS011;50277;52.064;4.492;2022-07-12T03:33:05;7.05;;;5.80;;
64029;SDS011;50277;52.064;4.492;2022-07-12T03:35:30;6.28;;;5.60;;
64029;SDS011;50277;52.064;4.492;2022-07-12T03:37:55;8.68;;;6.28;;
64029;SDS011;50277;52.064;4.492;2022-07-12T03:40:21;7.13;;;6.43;;
64029;SDS011;50277;52.064;4.492;2022-07-12T03:42:47;9.02;;;5.93;;
64029;SDS011;50277;52.064;4.492;2022-07-12T03:45:13;7.43;;;5.82;;
64029;SDS011;50277;52.064;4.492;2022-07-12T03:47:39;6.80;;;6.20;;
64029;SDS011;50277;52.064;4.492;2022-07-12T03:50:05;8.65;;;6.28;;
64029;SDS011;50277;52.064;4.492;2022-07-12T03:52:32;6.32;;;5.80;;
64029;SDS011;50277;52.064;4.492;2022-07-12T03:54:58;6.38;;;5.75;;
64029;SDS011;50277;52.064;4.492;2022-07-12T03:57:24;6.50;;;5.97;;
64029;SDS011;50277;52.064;4.492;2022-07-12T03:59:51;6.45;;;5.85;;
64029;SDS011;50277;52.064;4.492;2022-07-12T04:02:17;6.80;;;6.20;;
64029;SDS011;50277;52.064;4.492;2022-07-12T04:04:42;6.50;;;5.90;;
64029;SDS011;50277;52.064;4.492;2022-07-12T04:07:07;10.45;;;5.93;;
64029;SDS011;50277;52.064;4.492;2022-07-12T04:09:33;6.60;;;6.00;;
64029;SDS011;50277;52.064;4.492;2022-07-12T04:11:58;6.57;;;5.97;;
64029;SDS011;50277;52.064;4.492;2022-07-12T04:14:23;6.25;;;5.70;;
64029;SDS011;50277;52.064;4.492;2022-07-12T04:16:49;5.93;;;5.32;;
64029;SDS011;50277;52.064;4.492;2022-07-12T04:19:14;7.10;;;5.53;;
64029;SDS011;50277;52.064;4.492;2022-07-12T04:21:39;8.35;;;5.95;;
64029;SDS011;50277;52.064;4.492;2022-07-12T04:24:05;6.07;;;5.55;;
64029;SDS011;50277;52.064;4.492;2022-07-12T04:26:30;5.93;;;5.22;;
64029;SDS011;50277;52.064;4.492;2022-07-12T04:28:56;5.90;;;4.97;;
64029;SDS011;50277;52.064;4.492;2022-07-12T04:31:22;5.53;;;5.05;;
64029;SDS011;50277;52.064;4.492;2022-07-12T04:33:47;6.07;;;5.35;;
64029;SDS011;50277;52.064;4.492;2022-07-12T04:36:13;6.55;;;5.85;;
64029;SDS011;50277;52.064;4.492;2022-07-12T04:38:38;9.15;;;5.10;;
64029;SDS011;50277;52.064;4.492;2022-07-12T04:41:03;6.20;;;5.65;;
64029;SDS011;50277;52.064;4.492;2022-07-12T04:43:29;6.25;;;5.32;;
64029;SDS011;50277;52.064;4.492;2022-07-12T04:45:55;6.38;;;5.40;;
64029;SDS011;50277;52.064;4.492;2022-07-12T04:48:20;9.00;;;5.03;;
64029;SDS011;50277;52.064;4.492;2022-07-12T04:50:45;6.88;;;5.20;;
64029;SDS011;50277;52.064;4.492;2022-07-12T04:53:11;5.85;;;5.13;;
64029;SDS011;50277;52.064;4.492;2022-07-12T04:55:36;6.72;;;5.00;;
64029;SDS011;50277;52.064;4.492;2022-07-12T04:58:02;5.50;;;4.97;;
64029;SDS011;50277;52.064;4.492;2022-07-12T05:00:27;5.53;;;4.53;;
64029;SDS011;50277;52.064;4.492;2022-07-12T05:02:53;5.47;;;4.38;;
64029;SDS011;50277;52.064;4.492;2022-07-12T05:05:18;8.15;;;5.15;;
64029;SDS011;50277;52.064;4.492;2022-07-12T05:07:44;6.03;;;4.80;;
64029;SDS011;50277;52.064;4.492;2022-07-12T05:10:09;5.28;;;4.07;;
64029;SDS011;50277;52.064;4.492;2022-07-12T05:12:35;6.75;;;5.03;;
64029;SDS011;50277;52.064;4.492;2022-07-12T05:15:00;6.90;;;4.90;;
64029;SDS011;50277;52.064;4.492;2022-07-12T05:17:26;8.10;;;5.35;;
64029;SDS011;50277;52.064;4.492;2022-07-12T05:19:51;8.07;;;5.05;;
64029;SDS011;50277;52.064;4.492;2022-07-12T05:22:16;8.18;;;5.13;;
64029;SDS011;50277;52.064;4.492;2022-07-12T05:24:42;5.53;;;4.75;;
64029;SDS011;50277;52.064;4.492;2022-07-12T05:27:07;5.60;;;5.00;;
64029;SDS011;50277;52.064;4.492;2022-07-12T05:29:32;16.70;;;5.60;;
64029;SDS011;50277;52.064;4.492;2022-07-12T05:31:58;5.50;;;4.72;;
64029;SDS011;50277;52.064;4.492;2022-07-12T05:34:23;5.13;;;4.63;;
64029;SDS011;50277;52.064;4.492;2022-07-12T05:36:49;7.45;;;4.95;;
64029;SDS011;50277;52.064;4.492;2022-07-12T05:39:14;9.68;;;5.70;;
64029;SDS011;50277;52.064;4.492;2022-07-12T05:41:39;10.15;;;5.30;;
64029;SDS011;50277;52.064;4.492;2022-07-12T05:44:05;5.47;;;4.85;;
64029;SDS011;50277;52.064;4.492;2022-07-12T05:46:30;6.25;;;5.13;;
64029;SDS011;50277;52.064;4.492;2022-07-12T05:48:56;7.03;;;5.47;;
64029;SDS011;50277;52.064;4.492;2022-07-12T05:51:21;5.85;;;5.28;;
64029;SDS011;50277;52.064;4.492;2022-07-12T05:54:05;5.75;;;5.13;;
64029;SDS011;50277;52.064;4.492;2022-07-12T05:56:30;9.02;;;5.07;;
64029;SDS011;50277;52.064;4.492;2022-07-12T05:58:56;8.00;;;5.70;;
64029;SDS011;50277;52.064;4.492;2022-07-12T06:01:21;5.55;;;5.05;;
64029;SDS011;50277;52.064;4.492;2022-07-12T06:03:46;6.70;;;5.32;;
64029;SDS011;50277;52.064;4.492;2022-07-12T06:06:12;8.48;;;5.80;;
64029;SDS011;50277;52.064;4.492;2022-07-12T06:08:37;6.75;;;6.03;;
64029;SDS011;50277;52.064;4.492;2022-07-12T06:11:03;12.93;;;6.13;;
64029;SDS011;50277;52.064;4.492;2022-07-12T06:13:28;7.43;;;6.35;;
64029;SDS011;50277;52.064;4.492;2022-07-12T06:15:54;8.15;;;6.28;;
64029;SDS011;50277;52.064;4.492;2022-07-12T06:18:20;6.60;;;6.00;;
64029;SDS011;50277;52.064;4.492;2022-07-12T06:20:46;9.35;;;6.60;;
64029;SDS011;50277;52.064;4.492;2022-07-12T06:23:11;8.80;;;7.20;;
64029;SDS011;50277;52.064;4.492;2022-07-12T06:25:38;7.00;;;5.55;;
64029;SDS011;50277;52.064;4.492;2022-07-12T06:28:04;9.05;;;6.03;;
64029;SDS011;50277;52.064;4.492;2022-07-12T06:30:29;7.88;;;5.78;;
64029;SDS011;50277;52.064;4.492;2022-07-12T06:32:55;7.63;;;5.88;;
64029;SDS011;50277;52.064;4.492;2022-07-12T06:35:20;9.57;;;6.50;;
64029;SDS011;50277;52.064;4.492;2022-07-12T06:37:45;10.52;;;5.15;;
64029;SDS011;50277;52.064;4.492;2022-07-12T06:40:11;7.13;;;5.88;;
64029;SDS011;50277;52.064;4.492;2022-07-12T06:42:36;8.23;;;5.93;;
64029;SDS011;50277;52.064;4.492;2022-07-12T06:45:02;8.98;;;5.68;;
64029;SDS011;50277;52.064;4.492;2022-07-12T06:47:28;5.75;;;5.15;;
64029;SDS011;50277;52.064;4.492;2022-07-12T06:49:53;14.40;;;6.00;;
64029;SDS011;50277;52.064;4.492;2022-07-12T06:52:19;8.35;;;5.53;;
64029;SDS011;50277;52.064;4.492;2022-07-12T06:54:44;7.35;;;5.47;;
64029;SDS011;50277;52.064;4.492;2022-07-12T06:57:10;5.55;;;5.05;;
64029;SDS011;50277;52.064;4.492;2022-07-12T06:59:35;6.78;;;5.05;;
64029;SDS011;50277;52.064;4.492;2022-07-12T07:02:01;5.65;;;5.25;;
64029;SDS011;50277;52.064;4.492;2022-07-12T07:04:27;7.80;;;4.60;;
64029;SDS011;50277;52.064;4.492;2022-07-12T07:06:52;5.15;;;4.75;;
64029;SDS011;50277;52.064;4.492;2022-07-12T07:09:18;8.23;;;4.90;;
64029;SDS011;50277;52.064;4.492;2022-07-12T07:11:43;6.78;;;4.32;;
64029;SDS011;50277;52.064;4.492;2022-07-12T07:14:09;5.63;;;3.63;;
64029;SDS011;50277;52.064;4.492;2022-07-12T07:16:34;4.57;;;4.18;;
64029;SDS011;50277;52.064;4.492;2022-07-12T07:19:00;6.78;;;3.90;;
64029;SDS011;50277;52.064;4.492;2022-07-12T07:21:27;6.07;;;4.40;;
64029;SDS011;50277;52.064;4.492;2022-07-12T07:23:52;6.75;;;4.38;;
64029;SDS011;50277;52.064;4.492;2022-07-12T07:26:18;6.78;;;3.92;;
64029;SDS011;50277;52.064;4.492;2022-07-12T07:28:43;4.97;;;3.95;;
64029;SDS011;50277;52.064;4.492;2022-07-12T07:31:27;5.30;;;4.03;;
64029;SDS011;50277;52.064;4.492;2022-07-12T07:33:53;8.05;;;4.03;;
64029;SDS011;50277;52.064;4.492;2022-07-12T07:36:18;4.70;;;3.05;;
64029;SDS011;50277;52.064;4.492;2022-07-12T07:38:44;3.80;;;2.97;;
64029;SDS011;50277;52.064;4.492;2022-07-12T07:41:09;5.80;;;3.45;;
64029;SDS011;50277;52.064;4.492;2022-07-12T07:43:34;5.88;;;3.05;;
64029;SDS011;50277;52.064;4.492;2022-07-12T07:46:00;5.05;;;2.95;;
64029;SDS011;50277;52.064;4.492;2022-07-12T07:48:26;6.95;;;2.50;;
64029;SDS011;50277;52.064;4.492;2022-07-12T07:50:52;6.70;;;2.70;;
64029;SDS011;50277;52.064;4.492;2022-07-12T07:53:17;3.75;;;2.75;;
64029;SDS011;50277;52.064;4.492;2022-07-12T07:55:43;6.63;;;2.88;;
64029;SDS011;50277;52.064;4.492;2022-07-12T07:58:08;4.07;;;2.60;;
64029;SDS011;50277;52.064;4.492;2022-07-12T08:00:33;3.63;;;2.72;;
64029;SDS011;50277;52.064;4.492;2022-07-12T08:02:59;3.80;;;2.50;;
64029;SDS011;50277;52.064;4.492;2022-07-12T08:05:24;4.50;;;2.58;;
64029;SDS011;50277;52.064;4.492;2022-07-12T08:07:49;3.53;;;2.85;;
64029;SDS011;50277;52.064;4.492;2022-07-12T08:10:15;3.10;;;2.80;;
64029;SDS011;50277;52.064;4.492;2022-07-12T08:12:40;3.90;;;3.10;;
64029;SDS011;50277;52.064;4.492;2022-07-12T08:15:06;4.25;;;3.40;;
64029;SDS011;50277;52.064;4.492;2022-07-12T08:17:32;5.35;;;3.20;;
64029;SDS011;50277;52.064;4.492;2022-07-12T08:19:57;4.70;;;3.47;;
64029;SDS011;50277;52.064;4.492;2022-07-12T08:22:23;5.55;;;4.05;;
64029;SDS011;50277;52.064;4.492;2022-07-12T08:24:48;4.25;;;3.40;;
64029;SDS011;50277;52.064;4.492;2022-07-12T08:27:14;3.55;;;2.80;;
64029;SDS011;50277;52.064;4.492;2022-07-12T08:29:40;3.50;;;3.03;;
64029;SDS011;50277;52.064;4.492;2022-07-12T08:32:05;2.92;;;2.72;;
64029;SDS011;50277;52.064;4.492;2022-07-12T08:34:32;5.28;;;4.30;;
64029;SDS011;50277;52.064;4.492;2022-07-12T08:36:58;9.77;;;3.75;;
64029;SDS011;50277;52.064;4.492;2022-07-12T08:39:23;4.82;;;4.32;;
64029;SDS011;50277;52.064;4.492;2022-07-12T08:41:48;7.07;;;3.53;;
64029;SDS011;50277;52.064;4.492;2022-07-12T08:44:14;6.50;;;3.40;;
64029;SDS011;50277;52.064;4.492;2022-07-12T08:46:39;5.43;;;3.40;;
64029;SDS011;50277;52.064;4.492;2022-07-12T08:49:05;4.72;;;3.50;;
64029;SDS011;50277;52.064;4.492;2022-07-12T08:51:32;3.85;;;3.55;;
64029;SDS011;50277;52.064;4.492;2022-07-12T08:54:05;4.80;;;4.00;;
64029;SDS011;50277;52.064;4.492;2022-07-12T08:56:35;3.85;;;3.45;;
64029;SDS011;50277;52.064;4.492;2022-07-12T09:01:46;7.53;;;3.10;;
64029;SDS011;50277;52.064;4.492;2022-07-12T09:04:13;6.78;;;3.88;;
64029;SDS011;50277;52.064;4.492;2022-07-12T09:06:39;7.68;;;2.88;;
64029;SDS011;50277;52.064;4.492;2022-07-12T09:09:05;3.90;;;3.60;;
64029;SDS011;50277;52.064;4.492;2022-07-12T09:11:33;4.55;;;3.05;;
64029;SDS011;50277;52.064;4.492;2022-07-12T09:14:00;3.50;;;3.20;;
64029;SDS011;50277;52.064;4.492;2022-07-12T09:16:27;2.75;;;2.50;;
64029;SDS011;50277;52.064;4.492;2022-07-12T09:19:12;6.13;;;2.83;;
64029;SDS011;50277;52.064;4.492;2022-07-12T09:21:49;3.15;;;2.45;;
64029;SDS011;50277;52.064;4.492;2022-07-12T09:24:16;10.50;;;3.80;;
64029;SDS011;50277;52.064;4.492;2022-07-12T09:26:42;5.97;;;3.25;;
64029;SDS011;50277;52.064;4.492;2022-07-12T09:29:09;3.42;;;3.22;;
64029;SDS011;50277;52.064;4.492;2022-07-12T09:31:42;3.00;;;2.70;;
64029;SDS011;50277;52.064;4.492;2022-07-12T09:34:26;3.50;;;3.20;;
64029;SDS011;50277;52.064;4.492;2022-07-12T09:37:10;3.72;;;2.60;;
64029;SDS011;50277;52.064;4.492;2022-07-12T09:39:35;4.38;;;2.58;;
64029;SDS011;50277;52.064;4.492;2022-07-12T09:42:01;4.88;;;2.55;;
64029;SDS011;50277;52.064;4.492;2022-07-12T09:44:27;3.15;;;2.78;;
64029;SDS011;50277;52.064;4.492;2022-07-12T09:46:54;5.95;;;3.65;;
64029;SDS011;50277;52.064;4.492;2022-07-12T09:49:20;3.30;;;3.00;;
64029;SDS011;50277;52.064;4.492;2022-07-12T09:51:45;4.68;;;4.13;;
64029;SDS011;50277;52.064;4.492;2022-07-12T09:54:13;5.65;;;4.07;;
64029;SDS011;50277;52.064;4.492;2022-07-12T09:56:40;3.90;;;3.60;;
64029;SDS011;50277;52.064;4.492;2022-07-12T10:01:33;5.72;;;3.80;;
64029;SDS011;50277;52.064;4.492;2022-07-12T10:03:59;4.95;;;3.35;;
64029;SDS011;50277;52.064;4.492;2022-07-12T10:06:26;8.40;;;4.25;;
64029;SDS011;50277;52.064;4.492;2022-07-12T10:08:52;4.50;;;3.47;;
64029;SDS011;50277;52.064;4.492;2022-07-12T10:11:19;4.03;;;3.55;;
64029;SDS011;50277;52.064;4.492;2022-07-12T10:13:45;3.83;;;3.38;;
64029;SDS011;50277;52.064;4.492;2022-07-12T10:16:10;6.65;;;3.33;;
64029;SDS011;50277;52.064;4.492;2022-07-12T10:18:38;2.88;;;2.67;;
64029;SDS011;50277;52.064;4.492;2022-07-12T10:21:17;4.82;;;3.25;;
64029;SDS011;50277;52.064;4.492;2022-07-12T10:23:44;3.78;;;3.13;;
64029;SDS011;50277;52.064;4.492;2022-07-12T10:29:03;5.82;;;4.07;;
64029;SDS011;50277;52.064;4.492;2022-07-12T10:31:33;4.10;;;3.20;;
64029;SDS011;50277;52.064;4.492;2022-07-12T10:39:20;4.28;;;3.13;;
64029;SDS011;50277;52.064;4.492;2022-07-12T10:42:28;4.65;;;4.00;;
64029;SDS011;50277;52.064;4.492;2022-07-12T10:44:38;5.53;;;3.20;;
64029;SDS011;50277;52.064;4.492;2022-07-12T10:47:05;3.15;;;2.50;;
64029;SDS011;50277;52.064;4.492;2022-07-12T10:49:33;4.50;;;3.83;;
64029;SDS011;50277;52.064;4.492;2022-07-12T10:54:35;4.03;;;3.72;;
64029;SDS011;50277;52.064;4.492;2022-07-12T10:57:04;5.05;;;4.47;;
64029;SDS011;50277;52.064;4.492;2022-07-12T10:59:30;5.00;;;4.25;;
64029;SDS011;50277;52.064;4.492;2022-07-12T11:01:58;7.18;;;4.78;;
64029;SDS011;50277;52.064;4.492;2022-07-12T11:04:25;4.65;;;4.22;;
64029;SDS011;50277;52.064;4.492;2022-07-12T11:06:51;9.02;;;4.40;;
64029;SDS011;50277;52.064;4.492;2022-07-12T11:09:21;3.75;;;3.05;;
64029;SDS011;50277;52.064;4.492;2022-07-12T11:11:48;3.95;;;2.95;;
64029;SDS011;50277;52.064;4.492;2022-07-12T11:14:28;2.65;;;2.45;;
64029;SDS011;50277;52.064;4.492;2022-07-12T11:16:55;2.30;;;2.20;;
64029;SDS011;50277;52.064;4.492;2022-07-12T11:19:23;3.75;;;2.30;;
64029;SDS011;50277;52.064;4.492;2022-07-12T11:21:49;2.38;;;2.25;;
64029;SDS011;50277;52.064;4.492;2022-07-12T11:24:21;2.60;;;2.40;;
64029;SDS011;50277;52.064;4.492;2022-07-12T11:26:56;4.18;;;3.25;;
64029;SDS011;50277;52.064;4.492;2022-07-12T11:29:21;2.60;;;2.40;;
64029;SDS011;50277;52.064;4.492;2022-07-12T11:31:48;3.85;;;3.13;;
64029;SDS011;50277;52.064;4.492;2022-07-12T11:34:23;2.88;;;2.10;;
64029;SDS011;50277;52.064;4.492;2022-07-12T11:36:56;2.40;;;2.20;;
64029;SDS011;50277;52.064;4.492;2022-07-12T11:39:55;2.33;;;2.03;;
64029;SDS011;50277;52.064;4.492;2022-07-12T11:42:15;1.80;;;1.70;;
64029;SDS011;50277;52.064;4.492;2022-07-12T11:44:51;2.40;;;2.20;;
64029;SDS011;50277;52.064;4.492;2022-07-12T11:47:17;2.00;;;1.90;;
64029;SDS011;50277;52.064;4.492;2022-07-12T11:52:11;2.45;;;2.20;;
64029;SDS011;50277;52.064;4.492;2022-07-12T11:54:38;2.65;;;2.28;;
64029;SDS011;50277;52.064;4.492;2022-07-12T11:57:10;5.00;;;2.63;;
64029;SDS011;50277;52.064;4.492;2022-07-12T11:59:36;3.67;;;2.10;;
64029;SDS011;50277;52.064;4.492;2022-07-12T12:02:02;2.35;;;2.08;;
64029;SDS011;50277;52.064;4.492;2022-07-12T12:04:32;3.10;;;1.90;;
64029;SDS011;50277;52.064;4.492;2022-07-12T12:07:08;3.65;;;2.03;;
64029;SDS011;50277;52.064;4.492;2022-07-12T12:09:56;9.23;;;2.38;;
64029;SDS011;50277;52.064;4.492;2022-07-12T12:12:42;2.72;;;2.20;;
64029;SDS011;50277;52.064;4.492;2022-07-12T12:15:09;3.47;;;1.88;;
64029;SDS011;50277;52.064;4.492;2022-07-12T12:20:11;3.65;;;2.13;;
64029;SDS011;50277;52.064;4.492;2022-07-12T12:22:38;1.80;;;1.70;;
64029;SDS011;50277;52.064;4.492;2022-07-12T12:25:04;1.70;;;1.60;;
64029;SDS011;50277;52.064;4.492;2022-07-12T12:27:30;3.17;;;1.70;;
64029;SDS011;50277;52.064;4.492;2022-07-12T12:30:05;6.95;;;1.92;;
64029;SDS011;50277;52.064;4.492;2022-07-12T12:32:42;2.72;;;1.77;;
64029;SDS011;50277;52.064;4.492;2022-07-12T12:35:12;1.95;;;1.85;;
64029;SDS011;50277;52.064;4.492;2022-07-12T12:37:37;1.88;;;1.77;;
64029;SDS011;50277;52.064;4.492;2022-07-12T12:40:03;3.53;;;2.33;;
64029;SDS011;50277;52.064;4.492;2022-07-12T12:42:30;3.10;;;2.00;;
64029;SDS011;50277;52.064;4.492;2022-07-12T12:44:55;2.95;;;1.95;;
64029;SDS011;50277;52.064;4.492;2022-07-12T12:47:21;1.60;;;1.52;;
64029;SDS011;50277;52.064;4.492;2022-07-12T12:49:55;2.92;;;1.55;;
64029;SDS011;50277;52.064;4.492;2022-07-12T12:52:22;1.92;;;1.75;;
64029;SDS011;50277;52.064;4.492;2022-07-12T12:54:48;1.70;;;1.60;;
64029;SDS011;50277;52.064;4.492;2022-07-12T12:57:16;2.67;;;1.63;;
64029;SDS011;50277;52.064;4.492;2022-07-12T12:59:41;3.42;;;1.85;;
64029;SDS011;50277;52.064;4.492;2022-07-12T13:02:07;2.00;;;1.83;;
64029;SDS011;50277;52.064;4.492;2022-07-12T13:04:34;3.67;;;1.85;;
64029;SDS011;50277;52.064;4.492;2022-07-12T13:07:00;2.45;;;1.92;;
64029;SDS011;50277;52.064;4.492;2022-07-12T13:09:26;2.08;;;1.65;;
64029;SDS011;50277;52.064;4.492;2022-07-12T13:11:52;1.70;;;1.60;;
64029;SDS011;50277;52.064;4.492;2022-07-12T13:14:17;3.60;;;1.65;;
64029;SDS011;50277;52.064;4.492;2022-07-12T13:16:43;1.60;;;1.50;;
64029;SDS011;50277;52.064;4.492;2022-07-12T13:19:08;2.10;;;1.67;;
64029;SDS011;50277;52.064;4.492;2022-07-12T13:21:34;2.95;;;1.65;;
64029;SDS011;50277;52.064;4.492;2022-07-12T13:23:59;3.15;;;1.80;;
64029;SDS011;50277;52.064;4.492;2022-07-12T13:26:24;1.75;;;1.55;;
64029;SDS011;50277;52.064;4.492;2022-07-12T13:28:50;3.20;;;1.90;;
64029;SDS011;50277;52.064;4.492;2022-07-12T13:31:16;2.28;;;2.10;;
64029;SDS011;50277;52.064;4.492;2022-07-12T13:33:41;4.13;;;2.10;;
64029;SDS011;50277;52.064;4.492;2022-07-12T13:36:06;1.70;;;1.60;;
64029;SDS011;50277;52.064;4.492;2022-07-12T13:38:32;1.50;;;1.30;;
64029;SDS011;50277;52.064;4.492;2022-07-12T13:40:57;5.88;;;2.20;;
64029;SDS011;50277;52.064;4.492;2022-07-12T13:43:23;4.60;;;1.75;;
64029;SDS011;50277;52.064;4.492;2022-07-12T13:45:51;6.60;;;2.10;;
64029;SDS011;50277;52.064;4.492;2022-07-12T13:48:17;3.65;;;1.98;;
64029;SDS011;50277;52.064;4.492;2022-07-12T13:50:43;5.88;;;1.80;;
64029;SDS011;50277;52.064;4.492;2022-07-12T13:53:09;2.08;;;1.88;;
64029;SDS011;50277;52.064;4.492;2022-07-12T13:55:35;6.05;;;1.70;;
64029;SDS011;50277;52.064;4.492;2022-07-12T13:58:00;1.73;;;1.40;;
64029;SDS011;50277;52.064;4.492;2022-07-12T14:00:26;2.53;;;2.00;;
64029;SDS011;50277;52.064;4.492;2022-07-12T14:02:51;3.65;;;3.00;;
64029;SDS011;50277;52.064;4.492;2022-07-12T14:05:17;2.80;;;2.00;;
64029;SDS011;50277;52.064;4.492;2022-07-12T14:07:43;3.15;;;2.50;;
64029;SDS011;50277;52.064;4.492;2022-07-12T14:10:09;5.20;;;2.85;;
64029;SDS011;50277;52.064;4.492;2022-07-12T14:12:35;4.78;;;2.30;;
64029;SDS011;50277;52.064;4.492;2022-07-12T14:15:01;4.25;;;2.40;;
64029;SDS011;50277;52.064;4.492;2022-07-12T14:20:11;5.43;;;2.80;;
64029;SDS011;50277;52.064;4.492;2022-07-12T14:22:37;3.53;;;3.00;;
64029;SDS011;50277;52.064;4.492;2022-07-12T14:25:03;3.53;;;3.20;;
64029;SDS011;50277;52.064;4.492;2022-07-12T14:27:30;5.47;;;3.08;;
64029;SDS011;50277;52.064;4.492;2022-07-12T14:29:56;5.00;;;3.83;;
64029;SDS011;50277;52.064;4.492;2022-07-12T14:32:21;4.72;;;3.20;;
64029;SDS011;50277;52.064;4.492;2022-07-12T14:34:46;7.53;;;4.35;;
64029;SDS011;50277;52.064;4.492;2022-07-12T14:37:12;8.60;;;4.43;;
64029;SDS011;50277;52.064;4.492;2022-07-12T14:39:37;9.48;;;4.47;;
64029;SDS011;50277;52.064;4.492;2022-07-12T14:42:03;7.05;;;4.18;;
64029;SDS011;50277;52.064;4.492;2022-07-12T14:44:29;6.65;;;4.10;;
64029;SDS011;50277;52.064;4.492;2022-07-12T14:46:54;5.32;;;3.95;;
64029;SDS011;50277;52.064;4.492;2022-07-12T14:49:20;6.50;;;4.70;;
64029;SDS011;50277;52.064;4.492;2022-07-12T14:51:46;5.63;;;4.32;;
64029;SDS011;50277;52.064;4.492;2022-07-12T14:54:11;5.47;;;4.32;;
64029;SDS011;50277;52.064;4.492;2022-07-12T14:56:37;4.63;;;4.03;;
64029;SDS011;50277;52.064;4.492;2022-07-12T14:59:02;8.65;;;4.18;;
64029;SDS011;50277;52.064;4.492;2022-07-12T15:01:27;4.32;;;3.80;;
64029;SDS011;50277;52.064;4.492;2022-07-12T15:03:53;7.45;;;4.65;;
64029;SDS011;50277;52.064;4.492;2022-07-12T15:06:18;7.55;;;5.03;;
64029;SDS011;50277;52.064;4.492;2022-07-12T15:08:44;5.45;;;4.72;;